sensor_id;sensor_type;location;lat;lon;timestamp;pressure;altitude;pressure_sealevel;temperature;humidity
57799;BME280;43626;53.866;30.298;2023-02-02T00:01:48;1005.6;;;1.6;72.6
57799;BME280;43626;53.866;30.298;2023-02-02T00:06:13;1005.6;;;1.7;72.6
57799;BME280;43626;53.866;30.298;2023-02-02T00:11:37;1005.6;;;1.8;72.3
57799;BME280;43626;53.866;30.298;2023-02-02T00:16:19;1005.6;;;1.8;72.2
57799;BME280;43626;53.866;30.298;2023-02-02T00:21:49;1005.6;;;1.9;72.1
57799;BME280;43626;53.866;30.298;2023-02-02T00:27:01;1005.6;;;1.8;72.1
57799;BME280;43626;53.866;30.298;2023-02-02T00:31:27;1005.6;;;1.9;72
57799;BME280;43626;53.866;30.298;2023-02-02T00:36:59;1005.6;;;1.8;72
57799;BME280;43626;53.866;30.298;2023-02-02T00:41:13;1005.5;;;1.8;72.2
57799;BME280;43626;53.866;30.298;2023-02-02T00:46:45;1005.5;;;1.8;72.2
57799;BME280;43626;53.866;30.298;2023-02-02T00:51:35;1005.5;;;1.8;72.2
57799;BME280;43626;53.866;30.298;2023-02-02T00:56:47;1005.5;;;1.8;72.1
57799;BME280;43626;53.866;30.298;2023-02-02T01:01:23;1005.5;;;1.9;71.9
57799;BME280;43626;53.866;30.298;2023-02-02T01:06:57;1005.5;;;2;71.7
57799;BME280;43626;53.866;30.298;2023-02-02T01:11:49;1005.6;;;2;71.8
57799;BME280;43626;53.866;30.298;2023-02-02T01:16:59;1005.6;;;2;71.7
57799;BME280;43626;53.866;30.298;2023-02-02T01:21:59;1005.6;;;2.1;71.6
57799;BME280;43626;53.866;30.298;2023-02-02T01:26:49;1005.6;;;2.1;71.6
57799;BME280;43626;53.866;30.298;2023-02-02T01:31:57;1005.6;;;2.1;71.4
57799;BME280;43626;53.866;30.298;2023-02-02T01:36:25;1005.6;;;2.1;71.3
57799;BME280;43626;53.866;30.298;2023-02-02T01:41:45;1005.6;;;2;71.2
57799;BME280;43626;53.866;30.298;2023-02-02T01:46:26;1005.6;;;2;71.3
57799;BME280;43626;53.866;30.298;2023-02-02T01:51:48;1005.6;;;2;71.2
57799;BME280;43626;53.866;30.298;2023-02-02T01:56:26;1005.6;;;2;71.1
57799;BME280;43626;53.866;30.298;2023-02-02T02:01:59;1005.7;;;2;71.2
57799;BME280;43626;53.866;30.298;2023-02-02T02:06:37;1005.7;;;2.1;71.2
57799;BME280;43626;53.866;30.298;2023-02-02T02:11:59;1005.7;;;2.1;71.2
57799;BME280;43626;53.866;30.298;2023-02-02T02:16:51;1005.7;;;2.1;71.1
57799;BME280;43626;53.866;30.298;2023-02-02T02:21:52;1005.7;;;2;71.2
57799;BME280;43626;53.866;30.298;2023-02-02T02:26:56;1005.7;;;2;71.2
57799;BME280;43626;53.866;30.298;2023-02-02T02:31:26;1005.8;;;2;71.2
57799;BME280;43626;53.866;30.298;2023-02-02T02:36:44;1005.8;;;2;71.2
57799;BME280;43626;53.866;30.298;2023-02-02T02:41:25;1005.9;;;1.9;71.3
57799;BME280;43626;53.866;30.298;2023-02-02T02:46:49;1005.9;;;2;71.3
57799;BME280;43626;53.866;30.298;2023-02-02T02:51:42;1005.9;;;2;71.2
57799;BME280;43626;53.866;30.298;2023-02-02T02:57:12;1005.9;;;2;71
57799;BME280;43626;53.866;30.298;2023-02-02T03:01:41;1006;;;2;71
57799;BME280;43626;53.866;30.298;2023-02-02T03:07:03;1006.1;;;2;71
57799;BME280;43626;53.866;30.298;2023-02-02T03:11:47;1006.1;;;2;71.1
57799;BME280;43626;53.866;30.298;2023-02-02T03:16:14;1006.2;;;2;71
57799;BME280;43626;53.866;30.298;2023-02-02T03:21:13;1006.2;;;2;71.1
57799;BME280;43626;53.866;30.298;2023-02-02T03:26:23;1006.3;;;2;71.2
57799;BME280;43626;53.866;30.298;2023-02-02T03:31:45;1006.3;;;2;71.1
57799;BME280;43626;53.866;30.298;2023-02-02T03:36:13;1006.3;;;2;71.2
57799;BME280;43626;53.866;30.298;2023-02-02T03:41:45;1006.3;;;1.9;71.4
57799;BME280;43626;53.866;30.298;2023-02-02T03:46:13;1006.3;;;2;71.4
57799;BME280;43626;53.866;30.298;2023-02-02T03:52:01;1006.4;;;2;71.3
57799;BME280;43626;53.866;30.298;2023-02-02T03:56:13;1006.4;;;2;71.2
57799;BME280;43626;53.866;30.298;2023-02-02T04:01:43;1006.4;;;2;71.2
57799;BME280;43626;53.866;30.298;2023-02-02T04:06:13;1006.4;;;2.1;71
57799;BME280;43626;53.866;30.298;2023-02-02T04:11:13;1006.4;;;2.2;70.9
57799;BME280;43626;53.866;30.298;2023-02-02T04:16:37;1006.4;;;2.2;70.8
57799;BME280;43626;53.866;30.298;2023-02-02T04:21:13;1006.5;;;2.2;70.6
57799;BME280;43626;53.866;30.298;2023-02-02T04:27:01;1006.4;;;2.2;70.6
57799;BME280;43626;53.866;30.298;2023-02-02T04:31:25;1006.5;;;2.2;70.5
57799;BME280;43626;53.866;30.298;2023-02-02T04:36:37;1006.5;;;2.3;70.5
57799;BME280;43626;53.866;30.298;2023-02-02T04:41:59;1006.5;;;2.2;70.2
57799;BME280;43626;53.866;30.298;2023-02-02T04:47:01;1006.5;;;2.1;70.3
57799;BME280;43626;53.866;30.298;2023-02-02T04:51:37;1006.5;;;2.1;70.3
57799;BME280;43626;53.866;30.298;2023-02-02T04:56:59;1006.5;;;2.1;70.3
57799;BME280;43626;53.866;30.298;2023-02-02T05:01:59;1006.5;;;2.1;70.3
57799;BME280;43626;53.866;30.298;2023-02-02T05:06:13;1006.6;;;2.1;70.4
57799;BME280;43626;53.866;30.298;2023-02-02T05:11:35;1006.6;;;2.2;70.5
57799;BME280;43626;53.866;30.298;2023-02-02T05:16:37;1006.7;;;2.2;70.5
57799;BME280;43626;53.866;30.298;2023-02-02T05:21:37;1006.7;;;2.2;70.4
57799;BME280;43626;53.866;30.298;2023-02-02T05:27:01;1006.8;;;2.2;70.5
57799;BME280;43626;53.866;30.298;2023-02-02T05:31:35;1006.9;;;2.2;70.5
57799;BME280;43626;53.866;30.298;2023-02-02T05:36:59;1006.9;;;2.2;70.6
57799;BME280;43626;53.866;30.298;2023-02-02T05:41:27;1007;;;2.1;70.5
57799;BME280;43626;53.866;30.298;2023-02-02T05:46:13;1007.1;;;2.1;70.6
57799;BME280;43626;53.866;30.298;2023-02-02T05:51:28;1007.1;;;2.1;71.3
57799;BME280;43626;53.866;30.298;2023-02-02T05:56:50;1007.2;;;2.1;70.7
57799;BME280;43626;53.866;30.298;2023-02-02T06:01:13;1007.2;;;2.2;70.7
57799;BME280;43626;53.866;30.298;2023-02-02T06:06:35;1007.2;;;2.2;70.5
57799;BME280;43626;53.866;30.298;2023-02-02T06:11:14;1007.3;;;2.2;70.5
57799;BME280;43626;53.866;30.298;2023-02-02T06:16:49;1007.3;;;2.3;70.5
57799;BME280;43626;53.866;30.298;2023-02-02T06:22:01;1007.3;;;2.3;70.4
57799;BME280;43626;53.866;30.298;2023-02-02T06:26:23;1007.3;;;2.3;70.5
57799;BME280;43626;53.866;30.298;2023-02-02T06:31:57;1007.4;;;2.3;70.5
57799;BME280;43626;53.866;30.298;2023-02-02T06:36:13;1007.5;;;2.3;70.4
57799;BME280;43626;53.866;30.298;2023-02-02T06:41:37;1007.5;;;2.3;70.5
57799;BME280;43626;53.866;30.298;2023-02-02T06:46:27;1007.5;;;2.2;70.4
57799;BME280;43626;53.866;30.298;2023-02-02T06:51:49;1007.6;;;2.3;70.4
57799;BME280;43626;53.866;30.298;2023-02-02T06:56:13;1007.6;;;2.3;70.4
57799;BME280;43626;53.866;30.298;2023-02-02T07:01:13;1007.7;;;2.3;70.4
57799;BME280;43626;53.866;30.298;2023-02-02T07:06:14;1007.6;;;2.3;70.4
57799;BME280;43626;53.866;30.298;2023-02-02T07:11:51;1007.7;;;2.3;70.4
57799;BME280;43626;53.866;30.298;2023-02-02T07:17:01;1007.7;;;2.4;70.5
57799;BME280;43626;53.866;30.298;2023-02-02T07:21:15;1007.8;;;2.5;70.4
57799;BME280;43626;53.866;30.298;2023-02-02T07:27:03;1007.9;;;2.6;70.3
57799;BME280;43626;53.866;30.298;2023-02-02T07:31:24;1007.9;;;2.7;70.1
57799;BME280;43626;53.866;30.298;2023-02-02T07:36:49;1008;;;2.8;69.7
57799;BME280;43626;53.866;30.298;2023-02-02T07:41:23;1008;;;2.9;69.2
57799;BME280;43626;53.866;30.298;2023-02-02T07:46:49;1008;;;2.9;68.9
57799;BME280;43626;53.866;30.298;2023-02-02T07:51:24;1008.1;;;2.9;68.7
57799;BME280;43626;53.866;30.298;2023-02-02T07:56:57;1008.2;;;2.9;68.5
57799;BME280;43626;53.866;30.298;2023-02-02T08:01:51;1008.2;;;2.9;68.5
57799;BME280;43626;53.866;30.298;2023-02-02T08:07:01;1008.2;;;2.9;68.6
57799;BME280;43626;53.866;30.298;2023-02-02T08:12:01;1008.3;;;3;68.6
57799;BME280;43626;53.866;30.298;2023-02-02T08:16:51;1008.3;;;3.2;68.5
57799;BME280;43626;53.866;30.298;2023-02-02T08:21:47;1008.4;;;3.2;68.4
57799;BME280;43626;53.866;30.298;2023-02-02T08:26:14;1008.4;;;3.3;68.3
57799;BME280;43626;53.866;30.298;2023-02-02T08:31:47;1008.4;;;3.3;68.1
57799;BME280;43626;53.866;30.298;2023-02-02T08:36:13;1008.5;;;3.4;68.1
57799;BME280;43626;53.866;30.298;2023-02-02T08:41:47;1008.5;;;3.4;67.8
57799;BME280;43626;53.866;30.298;2023-02-02T08:46:37;1008.6;;;3.3;67.7
57799;BME280;43626;53.866;30.298;2023-02-02T08:52:03;1008.6;;;3.4;67.5
57799;BME280;43626;53.866;30.298;2023-02-02T08:56:43;1008.6;;;3.4;67.5
57799;BME280;43626;53.866;30.298;2023-02-02T09:02:01;1008.6;;;3.4;67.3
57799;BME280;43626;53.866;30.298;2023-02-02T09:06:51;1008.7;;;3.5;67.2
57799;BME280;43626;53.866;30.298;2023-02-02T09:11:51;1008.7;;;3.5;67.4
57799;BME280;43626;53.866;30.298;2023-02-02T09:16:24;1008.7;;;3.5;67.5
57799;BME280;43626;53.866;30.298;2023-02-02T09:21:14;1008.7;;;3.5;67.7
57799;BME280;43626;53.866;30.298;2023-02-02T09:26:14;1008.8;;;3.6;67.6
57799;BME280;43626;53.866;30.298;2023-02-02T09:31:28;1008.8;;;3.7;67.5
57799;BME280;43626;53.866;30.298;2023-02-02T09:36:49;1008.8;;;3.7;67.4
57799;BME280;43626;53.866;30.298;2023-02-02T09:41:19;1008.8;;;3.8;67.1
57799;BME280;43626;53.866;30.298;2023-02-02T09:47:04;1008.8;;;3.9;66.7
57799;BME280;43626;53.866;30.298;2023-02-02T09:51:28;1008.8;;;3.9;66.4
57799;BME280;43626;53.866;30.298;2023-02-02T09:56:48;1008.8;;;3.9;66.1
57799;BME280;43626;53.866;30.298;2023-02-02T10:01:48;1008.9;;;3.9;66.1
57799;BME280;43626;53.866;30.298;2023-02-02T10:06:25;1008.9;;;3.8;66.2
57799;BME280;43626;53.866;30.298;2023-02-02T10:11:25;1008.9;;;3.8;66.3
57799;BME280;43626;53.866;30.298;2023-02-02T10:16:27;1009;;;3.8;66.6
57799;BME280;43626;53.866;30.298;2023-02-02T10:22:01;1009;;;3.8;66.6
57799;BME280;43626;53.866;30.298;2023-02-02T10:26:29;1008.9;;;3.8;66.6
57799;BME280;43626;53.866;30.298;2023-02-02T10:31:48;1008.9;;;3.8;66.6
57799;BME280;43626;53.866;30.298;2023-02-02T10:36:43;1008.9;;;3.8;66.7
57799;BME280;43626;53.866;30.298;2023-02-02T10:42:04;1009;;;3.8;66.5
57799;BME280;43626;53.866;30.298;2023-02-02T10:46:40;1009;;;3.8;66.5
57799;BME280;43626;53.866;30.298;2023-02-02T10:51:48;1009;;;3.9;66.4
57799;BME280;43626;53.866;30.298;2023-02-02T10:56:49;1009;;;3.9;66.1
57799;BME280;43626;53.866;30.298;2023-02-02T11:01:37;1009.1;;;3.9;66
57799;BME280;43626;53.866;30.298;2023-02-02T11:06:37;1009.1;;;3.9;66
57799;BME280;43626;53.866;30.298;2023-02-02T11:11:15;1009.1;;;3.9;66.1
57799;BME280;43626;53.866;30.298;2023-02-02T11:17:02;1009.1;;;3.9;66.3
57799;BME280;43626;53.866;30.298;2023-02-02T11:21:28;1009.1;;;3.9;66.4
57799;BME280;43626;53.866;30.298;2023-02-02T11:26:40;1009.2;;;4;66.2
57799;BME280;43626;53.866;30.298;2023-02-02T11:31:52;1009.2;;;4;66.2
57799;BME280;43626;53.866;30.298;2023-02-02T11:36:57;1009.2;;;3.9;66
57799;BME280;43626;53.866;30.298;2023-02-02T11:41:59;1009.2;;;3.9;65.9
57799;BME280;43626;53.866;30.298;2023-02-02T11:46:59;1009.3;;;3.8;65.9
57799;BME280;43626;53.866;30.298;2023-02-02T11:52:00;1009.3;;;3.8;66
57799;BME280;43626;53.866;30.298;2023-02-02T11:56:16;1009.4;;;3.7;66.5
57799;BME280;43626;53.866;30.298;2023-02-02T12:01:22;1009.4;;;3.7;66.6
57799;BME280;43626;53.866;30.298;2023-02-02T12:06:17;1009.5;;;3.8;66.5
57799;BME280;43626;53.866;30.298;2023-02-02T12:11:39;1009.5;;;3.8;66.4
57799;BME280;43626;53.866;30.298;2023-02-02T12:16:52;1009.5;;;3.8;66.5
57799;BME280;43626;53.866;30.298;2023-02-02T12:21:50;1009.6;;;3.8;66.8
57799;BME280;43626;53.866;30.298;2023-02-02T12:27:05;1009.6;;;3.7;66.8
57799;BME280;43626;53.866;30.298;2023-02-02T12:31:40;1009.6;;;3.7;66.8
57799;BME280;43626;53.866;30.298;2023-02-02T12:36:46;1009.6;;;3.6;66.8
57799;BME280;43626;53.866;30.298;2023-02-02T12:41:17;1009.6;;;3.7;67
57799;BME280;43626;53.866;30.298;2023-02-02T12:46:55;1009.7;;;3.7;67.2
57799;BME280;43626;53.866;30.298;2023-02-02T12:51:41;1009.7;;;3.7;67.3
57799;BME280;43626;53.866;30.298;2023-02-02T12:56:16;1009.8;;;3.7;67.3
57799;BME280;43626;53.866;30.298;2023-02-02T13:01:28;1009.8;;;3.7;67.3
57799;BME280;43626;53.866;30.298;2023-02-02T13:06:52;1009.8;;;3.6;67.4
57799;BME280;43626;53.866;30.298;2023-02-02T13:12:01;1009.8;;;3.6;67.4
57799;BME280;43626;53.866;30.298;2023-02-02T13:16:23;1009.8;;;3.6;67.4
57799;BME280;43626;53.866;30.298;2023-02-02T13:21:57;1009.9;;;3.7;67.3
57799;BME280;43626;53.866;30.298;2023-02-02T13:26:26;1009.9;;;3.7;67.3
57799;BME280;43626;53.866;30.298;2023-02-02T13:31:49;1010;;;3.8;67.2
57799;BME280;43626;53.866;30.298;2023-02-02T13:36:15;1010;;;3.8;67
57799;BME280;43626;53.866;30.298;2023-02-02T13:41:49;1010;;;3.7;66.9
57799;BME280;43626;53.866;30.298;2023-02-02T13:46:30;1010.1;;;3.5;67
57799;BME280;43626;53.866;30.298;2023-02-02T13:52:05;1010.2;;;3.4;67.3
57799;BME280;43626;53.866;30.298;2023-02-02T13:56:52;1010.2;;;3.3;67.7
57799;BME280;43626;53.866;30.298;2023-02-02T14:02:01;1010.2;;;3.2;68
57799;BME280;43626;53.866;30.298;2023-02-02T14:07:00;1010.3;;;3.2;68.1
57799;BME280;43626;53.866;30.298;2023-02-02T14:11:51;1010.4;;;3.3;68.2
57799;BME280;43626;53.866;30.298;2023-02-02T14:16:49;1010.4;;;3.3;68.2
57799;BME280;43626;53.866;30.298;2023-02-02T14:22:00;1010.4;;;3.3;68.1
57799;BME280;43626;53.866;30.298;2023-02-02T14:26:39;1010.4;;;3.3;68.1
57799;BME280;43626;53.866;30.298;2023-02-02T14:31:15;1010.4;;;3.3;68.2
57799;BME280;43626;53.866;30.298;2023-02-02T14:38:10;1010.4;;;3.2;68.2
57799;BME280;43626;53.866;30.298;2023-02-02T14:41:43;1010.5;;;3.1;68.5
57799;BME280;43626;53.866;30.298;2023-02-02T14:47:08;1010.6;;;3;68.7
57799;BME280;43626;53.866;30.298;2023-02-02T14:51:52;1010.7;;;3;68.8
57799;BME280;43626;53.866;30.298;2023-02-02T14:57:04;1010.8;;;3;68.7
57799;BME280;43626;53.866;30.298;2023-02-02T15:02:01;1010.9;;;3.1;68.8
57799;BME280;43626;53.866;30.298;2023-02-02T15:06:52;1010.9;;;3.1;68.7
57799;BME280;43626;53.866;30.298;2023-02-02T15:13:00;1011;;;3.2;68.6
57799;BME280;43626;53.866;30.298;2023-02-02T15:16:14;1011;;;3.2;68.6
57799;BME280;43626;53.866;30.298;2023-02-02T15:21:47;1011.1;;;3.2;68.5
57799;BME280;43626;53.866;30.298;2023-02-02T15:26:14;1011.1;;;3.2;68.6
57799;BME280;43626;53.866;30.298;2023-02-02T15:31:34;1011.1;;;3.2;68.6
57799;BME280;43626;53.866;30.298;2023-02-02T15:36:29;1011.2;;;3.2;68.5
57799;BME280;43626;53.866;30.298;2023-02-02T15:41:51;1011.2;;;3.2;68.4
57799;BME280;43626;53.866;30.298;2023-02-02T15:46:41;1011.3;;;3.2;68.4
57799;BME280;43626;53.866;30.298;2023-02-02T15:52:05;1011.4;;;3.1;68.6
57799;BME280;43626;53.866;30.298;2023-02-02T15:56:51;1011.4;;;3;68.9
57799;BME280;43626;53.866;30.298;2023-02-02T16:01:50;1011.5;;;3;69
57799;BME280;43626;53.866;30.298;2023-02-02T16:06:13;1011.5;;;3;69
57799;BME280;43626;53.866;30.298;2023-02-02T16:11:27;1011.5;;;3;69
57799;BME280;43626;53.866;30.298;2023-02-02T16:16:47;1011.5;;;3;69.2
57799;BME280;43626;53.866;30.298;2023-02-02T16:21:27;1011.6;;;2.9;69.2
57799;BME280;43626;53.866;30.298;2023-02-02T16:26:39;1011.7;;;2.9;69.3
57799;BME280;43626;53.866;30.298;2023-02-02T16:31:39;1011.7;;;2.9;69.5
57799;BME280;43626;53.866;30.298;2023-02-02T16:37:03;1011.8;;;2.9;69.6
57799;BME280;43626;53.866;30.298;2023-02-02T16:41:24;1011.8;;;2.9;69.4
57799;BME280;43626;53.866;30.298;2023-02-02T16:46:47;1011.8;;;2.9;69.5
57799;BME280;43626;53.866;30.298;2023-02-02T16:52:05;1011.9;;;2.9;69.5
57799;BME280;43626;53.866;30.298;2023-02-02T16:56:30;1011.9;;;2.8;69.4
57799;BME280;43626;53.866;30.298;2023-02-02T17:01:36;1012;;;2.9;69.4
57799;BME280;43626;53.866;30.298;2023-02-02T17:06:13;1012.1;;;2.9;69.4
57799;BME280;43626;53.866;30.298;2023-02-02T17:12:03;1012.2;;;2.9;69.3
57799;BME280;43626;53.866;30.298;2023-02-02T17:16:25;1012.2;;;2.8;69.3
57799;BME280;43626;53.866;30.298;2023-02-02T17:21:37;1012.3;;;2.8;69.3
57799;BME280;43626;53.866;30.298;2023-02-02T17:26:59;1012.3;;;2.7;69.3
57799;BME280;43626;53.866;30.298;2023-02-02T17:31:49;1012.4;;;2.7;69.5
57799;BME280;43626;53.866;30.298;2023-02-02T17:36:39;1012.4;;;2.7;69.5
57799;BME280;43626;53.866;30.298;2023-02-02T17:42:01;1012.4;;;2.8;69.5
57799;BME280;43626;53.866;30.298;2023-02-02T17:47:04;1012.5;;;2.8;69.5
57799;BME280;43626;53.866;30.298;2023-02-02T17:51:13;1012.5;;;2.8;69.4
57799;BME280;43626;53.866;30.298;2023-02-02T17:56:37;1012.5;;;2.8;69.3
57799;BME280;43626;53.866;30.298;2023-02-02T18:01:27;1012.5;;;2.8;69.4
57799;BME280;43626;53.866;30.298;2023-02-02T18:06:13;1012.6;;;2.7;69.5
57799;BME280;43626;53.866;30.298;2023-02-02T18:11:37;1012.6;;;2.8;69.5
57799;BME280;43626;53.866;30.298;2023-02-02T18:16:13;1012.6;;;2.8;69.4
57799;BME280;43626;53.866;30.298;2023-02-02T18:21:59;1012.6;;;2.8;69.3
57799;BME280;43626;53.866;30.298;2023-02-02T18:26:14;1012.5;;;2.7;69.3
57799;BME280;43626;53.866;30.298;2023-02-02T18:31:25;1012.6;;;2.7;69.3
57799;BME280;43626;53.866;30.298;2023-02-02T18:36:59;1012.6;;;2.7;69.3
57799;BME280;43626;53.866;30.298;2023-02-02T18:41:59;1012.6;;;2.7;69.1
57799;BME280;43626;53.866;30.298;2023-02-02T18:46:14;1012.6;;;2.7;69.2
57799;BME280;43626;53.866;30.298;2023-02-02T18:51:34;1012.6;;;2.7;69.2
57799;BME280;43626;53.866;30.298;2023-02-02T18:56:13;1012.7;;;2.7;69.3
57799;BME280;43626;53.866;30.298;2023-02-02T19:01:37;1012.8;;;2.7;69.3
57799;BME280;43626;53.866;30.298;2023-02-02T19:06:47;1012.8;;;2.7;69.3
57799;BME280;43626;53.866;30.298;2023-02-02T19:11:38;1012.9;;;2.7;69.4
57799;BME280;43626;53.866;30.298;2023-02-02T19:17:01;1012.9;;;2.8;69.3
57799;BME280;43626;53.866;30.298;2023-02-02T19:21:52;1012.9;;;2.8;69.5
57799;BME280;43626;53.866;30.298;2023-02-02T19:26:16;1012.9;;;2.8;69.4
57799;BME280;43626;53.866;30.298;2023-02-02T19:31:37;1012.9;;;2.8;69.3
57799;BME280;43626;53.866;30.298;2023-02-02T19:36:49;1012.9;;;2.8;69.2
57799;BME280;43626;53.866;30.298;2023-02-02T19:41:35;1012.9;;;2.8;69.1
57799;BME280;43626;53.866;30.298;2023-02-02T19:46:24;1012.9;;;2.7;69.1
57799;BME280;43626;53.866;30.298;2023-02-02T19:51:45;1013;;;2.6;69.2
57799;BME280;43626;53.866;30.298;2023-02-02T19:56:51;1013;;;2.6;69.4
57799;BME280;43626;53.866;30.298;2023-02-02T20:02:23;1013.1;;;2.6;69.5
57799;BME280;43626;53.866;30.298;2023-02-02T20:06:39;1013.1;;;2.6;69.5
57799;BME280;43626;53.866;30.298;2023-02-02T20:12:02;1013.1;;;2.6;69.5
57799;BME280;43626;53.866;30.298;2023-02-02T20:16:55;1013.2;;;2.6;69.5
57799;BME280;43626;53.866;30.298;2023-02-02T20:21:50;1013.2;;;2.7;69.5
57799;BME280;43626;53.866;30.298;2023-02-02T20:26:28;1013.1;;;2.7;69.4
57799;BME280;43626;53.866;30.298;2023-02-02T20:31:52;1013.1;;;2.7;69.4
57799;BME280;43626;53.866;30.298;2023-02-02T20:36:41;1013.2;;;2.7;69.2
57799;BME280;43626;53.866;30.298;2023-02-02T20:42:05;1013.3;;;2.6;69.3
57799;BME280;43626;53.866;30.298;2023-02-02T20:46:53;1013.3;;;2.6;69.2
57799;BME280;43626;53.866;30.298;2023-02-02T20:52:04;1013.3;;;2.7;69.1
57799;BME280;43626;53.866;30.298;2023-02-02T20:57:01;1013.4;;;2.7;69
57799;BME280;43626;53.866;30.298;2023-02-02T21:01:51;1013.4;;;2.8;69
57799;BME280;43626;53.866;30.298;2023-02-02T21:06:59;1013.4;;;2.8;69
57799;BME280;43626;53.866;30.298;2023-02-02T21:11:13;1013.4;;;2.8;68.8
57799;BME280;43626;53.866;30.298;2023-02-02T21:16:45;1013.5;;;2.8;68.9
57799;BME280;43626;53.866;30.298;2023-02-02T21:21:13;1013.5;;;2.8;68.8
57799;BME280;43626;53.866;30.298;2023-02-02T21:26:51;1013.5;;;2.8;68.7
57799;BME280;43626;53.866;30.298;2023-02-02T21:31:27;1013.6;;;2.8;68.6
57799;BME280;43626;53.866;30.298;2023-02-02T21:37:01;1013.6;;;2.8;68.3
57799;BME280;43626;53.866;30.298;2023-02-02T21:41:39;1013.6;;;2.7;68.4
57799;BME280;43626;53.866;30.298;2023-02-02T21:46:59;1013.6;;;2.7;68.2
57799;BME280;43626;53.866;30.298;2023-02-02T21:52:01;1013.6;;;2.7;68.2
57799;BME280;43626;53.866;30.298;2023-02-02T21:56:49;1013.7;;;2.7;68.3
57799;BME280;43626;53.866;30.298;2023-02-02T22:01:35;1013.6;;;2.7;68.5
57799;BME280;43626;53.866;30.298;2023-02-02T22:06:28;1013.7;;;2.7;68.4
57799;BME280;43626;53.866;30.298;2023-02-02T22:12:00;1013.7;;;2.7;68.4
57799;BME280;43626;53.866;30.298;2023-02-02T22:16:15;1013.7;;;2.6;68.5
57799;BME280;43626;53.866;30.298;2023-02-02T22:21:51;1013.7;;;2.7;68.4
57799;BME280;43626;53.866;30.298;2023-02-02T22:26:26;1013.7;;;2.6;68.4
57799;BME280;43626;53.866;30.298;2023-02-02T22:31:57;1013.8;;;2.5;68.6
57799;BME280;43626;53.866;30.298;2023-02-02T22:36:23;1013.8;;;2.6;68.6
57799;BME280;43626;53.866;30.298;2023-02-02T22:41:57;1013.8;;;2.6;68.6
57799;BME280;43626;53.866;30.298;2023-02-02T22:46:47;1013.8;;;2.6;68.7
57799;BME280;43626;53.866;30.298;2023-02-02T22:51:47;1013.9;;;2.6;68.6
57799;BME280;43626;53.866;30.298;2023-02-02T22:56:35;1013.9;;;2.6;68.6
57799;BME280;43626;53.866;30.298;2023-02-02T23:01:27;1013.9;;;2.6;68.5
57799;BME280;43626;53.866;30.298;2023-02-02T23:06:47;1014;;;2.6;68.6
57799;BME280;43626;53.866;30.298;2023-02-02T23:11:39;1014;;;2.7;68.5
57799;BME280;43626;53.866;30.298;2023-02-02T23:16:49;1014;;;2.7;68.3
57799;BME280;43626;53.866;30.298;2023-02-02T23:21:13;1014.1;;;2.6;68.3
57799;BME280;43626;53.866;30.298;2023-02-02T23:27:03;1014.1;;;2.6;68.4
57799;BME280;43626;53.866;30.298;2023-02-02T23:31:39;1014.1;;;2.5;68.4
57799;BME280;43626;53.866;30.298;2023-02-02T23:36:47;1014.2;;;2.5;68.5
57799;BME280;43626;53.866;30.298;2023-02-02T23:41:59;1014.2;;;2.4;68.5
57799;BME280;43626;53.866;30.298;2023-02-02T23:46:25;1014.2;;;2.4;68.5
57799;BME280;43626;53.866;30.298;2023-02-02T23:51:37;1014.3;;;2.4;67.9
57799;BME280;43626;53.866;30.298;2023-02-02T23:56:45;1014.3;;;2.4;67.7
